Terminal Aerodrome Forecast
Issued by NWS

Home | Current Version | Previous Version | Text Only | Print | Product List | Glossary On
Versions: 1 2 3 4 5 6 7 8 9 10 11 12
000
FTUS45 KRIW 312300
TAFCPR
TAF
KCPR 312320Z 0100/0124 01012G20KT P6SM SCT030
     FM010100 01011KT P6SM OVC025
     FM010330 02009KT 4SM -SN SCT008 OVC015
     FM010500 02008KT 1 1/2SM -SN OVC008
     FM011000 36006KT 6SM -SN SCT012 OVC020
     FM011500 VRB04KT P6SM BKN020
     FM011800 26008KT P6SM SCT020=

USA.gov is the U.S. government's official web portal to all federal, state and local government web resources and services.